Time;durP1;ratioP1;P1;durP2;ratioP2;P2;SDS_P1;SDS_P2;PMS_P1;PMS_P2;Temp;Humidity;BMP_temperature;BMP_pressure;BME280_temperature;BME280_humidity;BME280_pressure;Samples;Min_cycle;Max_cycle;Signal;HPM_P1;HPM_P2
2021/03/04 00:01:36;;;;;;;26.77;15.50;;;;;;;6.19;100.00;98898.41;3691973;79;43996;-19
2021/03/04 00:06:42;;;;;;;26.93;15.20;;;;;;;6.14;100.00;98897.91;3689263;79;43757;-19
2021/03/04 00:11:48;;;;;;;26.17;15.77;;;;;;;6.12;100.00;98897.17;3708417;79;43665;-19
2021/03/04 00:16:54;;;;;;;23.97;14.87;;;;;;;6.12;100.00;98890.02;3653844;81;44133;-18
2021/03/04 00:22:00;;;;;;;28.23;15.80;;;;;;;6.05;100.00;98885.27;3691362;79;43502;-19
2021/03/04 00:27:07;;;;;;;31.73;16.40;;;;;;;6.01;100.00;98880.15;3694210;79;44024;-19
2021/03/04 00:32:13;;;;;;;29.70;16.67;;;;;;;6.03;100.00;98868.01;3692569;79;43706;-18
2021/03/04 00:37:20;;;;;;;29.07;16.40;;;;;;;6.07;100.00;98857.91;3687604;79;43717;-17
2021/03/04 00:42:26;;;;;;;29.93;15.97;;;;;;;6.13;100.00;98874.80;3693872;79;43305;-19
2021/03/04 00:47:33;;;;;;;27.87;15.97;;;;;;;6.13;100.00;98862.29;3689187;79;44104;-18
2021/03/04 00:52:39;;;;;;;24.90;15.97;;;;;;;6.13;100.00;98860.95;3699109;79;43479;-19
2021/03/04 00:57:46;;;;;;;27.60;15.83;;;;;;;6.12;100.00;98857.91;3661659;79;43065;-19
2021/03/04 01:02:52;;;;;;;29.93;16.10;;;;;;;6.10;100.00;98850.98;3693556;79;44042;-19
2021/03/04 01:07:59;;;;;;;28.07;16.73;;;;;;;6.03;100.00;98841.73;3661486;79;43712;-19
2021/03/04 01:13:05;;;;;;;29.50;15.83;;;;;;;5.97;100.00;98833.20;3698320;79;44126;-18
2021/03/04 01:18:11;;;;;;;30.23;17.27;;;;;;;5.95;100.00;98831.14;3656756;79;42775;-19
2021/03/04 01:23:17;;;;;;;27.37;16.63;;;;;;;5.90;100.00;98823.11;3695526;79;43316;-18
2021/03/04 01:28:23;;;;;;;29.53;16.43;;;;;;;5.86;100.00;98823.84;3686394;79;77825;-18
2021/03/04 01:33:28;;;;;;;28.13;16.33;;;;;;;5.85;100.00;98814.95;3657141;79;44195;-19
2021/03/04 01:38:35;;;;;;;26.97;15.70;;;;;;;5.86;100.00;98808.64;3694801;79;44108;-19
2021/03/04 01:43:40;;;;;;;27.90;15.47;;;;;;;5.89;100.00;98802.69;3658937;79;44046;-18
2021/03/04 01:48:47;;;;;;;27.27;16.53;;;;;;;5.90;100.00;98796.37;3660293;79;43724;-19
2021/03/04 01:53:53;;;;;;;23.52;14.03;;;;;;;5.91;100.00;98796.73;3692569;79;43625;-19
2021/03/04 01:58:59;;;;;;;25.73;14.93;;;;;;;5.92;100.00;98795.77;3687427;79;43750;-19
2021/03/04 02:04:07;;;;;;;29.27;15.93;;;;;;;5.96;100.00;98783.83;3649598;81;43713;-19
2021/03/04 02:09:15;;;;;;;29.80;17.13;;;;;;;5.96;100.00;98782.50;3691914;79;77703;-18
2021/03/04 02:14:24;;;;;;;29.53;16.60;;;;;;;5.97;100.00;98774.37;3657740;79;44082;-19
2021/03/04 02:19:53;;;;;;;27.30;15.87;;;;;;;6.00;100.00;98771.95;3696360;79;44495;-19
2021/03/04 02:25:07;;;;;;;30.53;16.40;;;;;;;6.00;100.00;98767.44;3704229;79;44128;-19
2021/03/04 02:30:16;;;;;;;24.90;15.20;;;;;;;6.02;100.00;98757.98;3697447;79;43475;-19
2021/03/04 02:35:26;;;;;;;26.63;15.67;;;;;;;6.01;100.00;98758.95;3694950;79;43523;-20
2021/03/04 02:40:34;;;;;;;29.07;17.13;;;;;;;6.00;100.00;98757.25;3693849;79;43118;-19
2021/03/04 02:45:42;;;;;;;32.50;16.87;;;;;;;6.00;100.00;98745.21;3697605;79;43661;-20
2021/03/04 02:50:51;;;;;;;31.57;17.87;;;;;;;6.02;100.00;98740.59;3692932;79;44128;-20
2021/03/04 02:55:58;;;;;;;27.27;16.63;;;;;;;6.02;100.00;98735.24;3699130;79;43247;-19
2021/03/04 03:01:06;;;;;;;31.07;17.73;;;;;;;6.02;100.00;98727.22;3700285;78;44032;-20
2021/03/04 03:06:13;;;;;;;32.50;17.53;;;;;;;6.07;100.00;98718.31;3703068;79;77357;-20
2021/03/04 03:11:20;;;;;;;27.00;15.77;;;;;;;6.10;100.00;98713.23;3703096;79;43059;-20
2021/03/04 03:16:27;;;;;;;28.73;16.70;;;;;;;6.11;100.00;98705.06;3709547;78;42940;-19
2021/03/04 03:21:35;;;;;;;29.63;17.17;;;;;;;6.11;100.00;98701.05;3708303;77;42860;-20
2021/03/04 03:26:41;;;;;;;28.13;16.67;;;;;;;6.14;100.00;98690.11;3704547;78;44119;-20
2021/03/04 03:31:49;;;;;;;31.17;17.63;;;;;;;6.19;100.00;98698.22;3699992;79;44037;-19
2021/03/04 03:36:57;;;;;;;31.63;17.87;;;;;;;6.20;100.00;98694.10;3702216;79;43623;-19
2021/03/04 03:42:05;;;;;;;28.90;17.73;;;;;;;6.22;100.00;98696.64;3699927;79;43719;-19
2021/03/04 03:47:12;;;;;;;32.23;18.00;;;;;;;6.25;100.00;98686.53;3701430;78;44108;-20
2021/03/04 03:52:19;;;;;;;27.50;16.53;;;;;;;6.31;100.00;98683.83;3708018;78;77515;-20
2021/03/04 03:57:28;;;;;;;27.47;16.77;;;;;;;6.35;100.00;98681.27;3707757;78;43693;-18
2021/03/04 04:02:34;;;;;;;29.47;16.97;;;;;;;6.38;100.00;98674.80;3688271;79;42666;-18
2021/03/04 04:07:40;;;;;;;31.27;17.87;;;;;;;6.39;100.00;98677.38;3687802;79;44466;-17
2021/03/04 04:12:46;;;;;;;29.73;16.90;;;;;;;6.42;100.00;98677.09;3703105;79;43369;-18
2021/03/04 04:17:54;;;;;;;29.10;17.53;;;;;;;6.44;100.00;98671.12;3650241;79;44129;-17
2021/03/04 04:23:02;;;;;;;29.07;18.13;;;;;;;6.44;100.00;98668.45;3695121;79;43312;-18
2021/03/04 04:28:08;;;;;;;25.23;15.53;;;;;;;6.45;100.00;98660.78;3653798;79;43395;-17
2021/03/04 04:33:14;;;;;;;31.80;17.03;;;;;;;6.46;100.00;98657.13;3692589;79;43055;-17
2021/03/04 04:38:22;;;;;;;32.45;17.52;;;;;;;6.46;100.00;98659.80;3652540;81;43985;-18
2021/03/04 04:43:28;;;;;;;32.80;17.87;;;;;;;6.46;100.00;98648.27;3682118;79;77824;-18
2021/03/04 04:48:34;;;;;;;34.70;18.43;;;;;;;6.47;100.00;98638.76;3697418;79;44169;-18
2021/03/04 04:53:42;;;;;;;36.00;19.20;;;;;;;6.51;100.00;98638.51;3691508;79;43287;-18
2021/03/04 04:58:48;;;;;;;30.10;17.90;;;;;;;6.50;100.00;98635.47;3665707;80;44917;-18
2021/03/04 05:03:54;;;;;;;31.40;19.33;;;;;;;6.47;100.00;98632.06;3664374;79;44100;-18
2021/03/04 05:09:00;;;;;;;35.63;19.17;;;;;;;6.46;100.00;98627.69;3663735;80;44047;-18
2021/03/04 05:14:06;;;;;;;35.43;19.90;;;;;;;6.39;100.00;98627.86;3671252;80;42914;-18
2021/03/04 05:19:12;;;;;;;34.30;19.43;;;;;;;6.39;100.00;98617.62;3588553;80;91423;-18
2021/03/04 05:24:18;;;;;;;33.93;19.47;;;;;;;6.37;100.00;98607.53;3634084;81;42814;-18
2021/03/04 05:29:24;;;;;;;39.33;20.83;;;;;;;6.36;100.00;98600.02;3632663;81;44146;-18
2021/03/04 05:34:30;;;;;;;32.87;18.87;;;;;;;6.35;100.00;98588.95;3623414;81;44035;-18
2021/03/04 05:39:36;;;;;;;35.30;20.17;;;;;;;6.35;100.00;98595.64;3630700;81;43488;-18
2021/03/04 05:44:44;;;;;;;33.93;20.13;;;;;;;6.34;100.00;98597.12;3622011;80;44042;-18
2021/03/04 05:49:53;;;;;;;34.70;20.07;;;;;;;6.35;100.00;98589.45;3619321;81;44025;-18
2021/03/04 05:54:59;;;;;;;34.67;20.13;;;;;;;6.32;100.00;98587.39;3620414;81;43713;-18
2021/03/04 06:00:08;;;;;;;40.40;21.33;;;;;;;6.30;100.00;98568.41;3608329;80;43352;-18
2021/03/04 06:05:18;;;;;;;31.67;18.83;;;;;;;6.30;100.00;98568.41;3575402;82;43690;-18
2021/03/04 06:10:24;;;;;;;33.93;20.40;;;;;;;6.26;100.00;98570.50;3587641;82;44007;-18
2021/03/04 06:15:32;;;;;;;32.77;19.57;;;;;;;6.32;100.00;98567.80;3636865;80;43699;-18
2021/03/04 06:20:38;;;;;;;37.03;21.03;;;;;;;6.32;100.00;98559.77;3573495;81;43706;-18
2021/03/04 06:25:48;;;;;;;36.73;21.90;;;;;;;6.32;100.00;98561.97;3585194;82;43462;-18
2021/03/04 06:30:58;;;;;;;32.43;18.60;;;;;;;6.32;100.00;98554.41;3587319;82;43448;-18
2021/03/04 06:36:14;;;;;;;37.67;21.07;;;;;;;6.33;100.00;98546.75;3584038;80;43681;-18
2021/03/04 06:41:22;;;;;;;35.13;19.90;;;;;;;6.34;100.00;98544.44;3579399;82;43667;-18
2021/03/04 06:46:29;;;;;;;38.40;20.57;;;;;;;6.39;100.00;98546.72;3591039;80;44095;-19
2021/03/04 06:51:44;;;;;;;35.20;19.90;;;;;;;6.47;100.00;98545.55;3584293;82;43397;-19
2021/03/04 06:56:52;;;;;;;35.53;20.63;;;;;;;6.51;100.00;98541.64;3580613;82;43722;-19
2021/03/04 07:01:58;;;;;;;35.83;19.90;;;;;;;6.56;100.00;98543.92;3586478;80;44468;-18
2021/03/04 07:07:08;;;;;;;34.33;19.63;;;;;;;6.60;100.00;98545.36;3594349;82;43391;-19
2021/03/04 07:12:15;;;;;;;36.93;20.70;;;;;;;6.70;100.00;98540.90;3579409;81;43722;-18
2021/03/04 07:17:24;;;;;;;29.90;17.70;;;;;;;6.74;100.00;98537.45;3581240;82;42928;-18
2021/03/04 07:22:34;;;;;;;35.90;20.33;;;;;;;6.83;100.00;98531.29;3572118;82;44042;-19
2021/03/04 07:27:40;;;;;;;35.70;18.67;;;;;;;6.89;100.00;98529.91;3581326;81;77419;-19
2021/03/04 07:32:48;;;;;;;38.60;20.77;;;;;;;7.01;100.00;98533.34;3578938;82;43051;-19
2021/03/04 07:37:54;;;;;;;34.83;19.87;;;;;;;7.12;100.00;98529.69;3572303;82;78010;-19
2021/03/04 07:43:04;;;;;;;34.93;19.83;;;;;;;7.23;100.00;98529.61;3580523;82;43308;-19
2021/03/04 07:48:11;;;;;;;32.57;17.53;;;;;;;7.33;100.00;98526.94;3576097;82;42994;-19
2021/03/04 07:53:18;;;;;;;36.30;21.03;;;;;;;7.38;100.00;98523.36;3592530;82;43482;-19
2021/03/04 07:58:24;;;;;;;41.83;21.80;;;;;;;7.54;100.00;98514.27;3658305;79;44062;-24
2021/03/04 08:03:30;;;;;;;38.48;22.80;;;;;;;7.60;100.00;98518.73;3588092;81;44102;-26
2021/03/04 08:08:40;;;;;;;41.85;21.52;;;;;;;7.62;100.00;98510.89;3579967;82;43718;-17
2021/03/04 08:13:46;;;;;;;39.63;22.77;;;;;;;7.64;100.00;98512.94;3591786;82;44482;-18
2021/03/04 08:18:57;;;;;;;40.67;23.25;;;;;;;7.78;100.00;98508.15;3586638;82;44720;-18
2021/03/04 08:24:03;;;;;;;41.03;24.67;;;;;;;7.91;100.00;98508.71;3585276;82;43767;-18
2021/03/04 08:29:11;;;;;;;48.80;25.33;;;;;;;7.94;100.00;98496.33;3588792;80;44561;-18
2021/03/04 08:34:18;;;;;;;41.77;22.43;;;;;;;8.09;100.00;98486.03;3587278;82;73175;-18
2021/03/04 08:39:26;;;;;;;40.12;23.32;;;;;;;8.34;100.00;98487.75;3589035;82;44555;-17
2021/03/04 08:44:33;;;;;;;43.02;23.07;;;;;;;8.51;100.00;98480.80;3595579;80;44047;-18
2021/03/04 08:49:39;;;;;;;38.78;22.32;;;;;;;8.72;100.00;98472.50;3596284;82;43715;-18
2021/03/04 08:54:49;;;;;;;40.80;22.87;;;;;;;8.88;100.00;98471.02;3593900;81;44227;-18
2021/03/04 09:00:09;;;;;;;40.73;22.50;;;;;;;9.08;100.00;98463.70;3588185;81;43999;-18
2021/03/04 09:05:21;;;;;;;45.25;23.20;;;;;;;9.35;100.00;98465.50;3597971;82;43680;-18
2021/03/04 09:10:28;;;;;;;39.45;22.90;;;;;;;9.71;100.00;98464.64;3594772;82;43973;-18
2021/03/04 09:15:34;;;;;;;49.23;24.63;;;;;;;9.88;100.00;98456.20;3589732;82;44184;-18
2021/03/04 09:20:40;;;;;;;44.63;24.67;;;;;;;10.01;100.00;98448.58;3593303;82;43681;-18
2021/03/04 09:25:47;;;;;;;48.42;24.40;;;;;;;10.20;100.00;98443.15;3589664;80;44134;-18
2021/03/04 09:30:53;;;;;;;49.60;26.83;;;;;;;10.41;98.37;98438.25;3597910;82;44039;-18
2021/03/04 09:36:01;;;;;;;44.38;25.48;;;;;;;10.51;95.80;98441.36;3593780;82;43053;-18
2021/03/04 09:41:12;;;;;;;50.38;28.10;;;;;;;10.71;94.74;98432.02;3592716;80;44002;-19
2021/03/04 09:46:28;;;;;;;52.45;29.35;;;;;;;10.92;92.75;98422.66;3554618;81;43986;-19
2021/03/04 09:51:39;;;;;;;52.43;29.18;;;;;;;10.94;93.71;98427.39;3594052;82;43668;-19
2021/03/04 09:56:46;;;;;;;49.05;28.07;;;;;;;11.12;94.98;98415.13;3595702;82;44087;-19
2021/03/04 10:01:52;;;;;;;50.38;27.82;;;;;;;11.12;90.82;98412.92;3594885;80;43306;-19
2021/03/04 10:06:58;;;;;;;53.83;29.12;;;;;;;11.14;89.92;98410.91;3656227;80;44059;-19
2021/03/04 10:12:05;;;;;;;51.80;28.98;;;;;;;11.31;90.82;98410.44;3587057;82;43376;-19
2021/03/04 10:17:12;;;;;;;56.13;28.95;;;;;;;11.39;88.14;98397.81;3577357;82;43681;-19
2021/03/04 10:22:19;;;;;;;51.48;28.95;;;;;;;11.39;87.94;98399.68;3584245;81;44047;-19
2021/03/04 10:27:25;;;;;;;54.48;28.83;;;;;;;11.44;90.33;98402.70;3587734;82;43440;-19
2021/03/04 10:32:31;;;;;;;50.55;28.47;;;;;;;11.30;88.21;98394.77;3658420;80;44417;-19
2021/03/04 10:37:38;;;;;;;56.95;29.65;;;;;;;11.17;90.30;98394.41;3584782;82;44069;-19
2021/03/04 10:42:45;;;;;;;54.20;30.55;;;;;;;10.91;90.04;98391.31;3593373;82;43686;-19
2021/03/04 10:47:51;;;;;;;58.87;31.07;;;;;;;10.70;93.05;98394.47;3581188;82;73694;-18
2021/03/04 10:52:58;;;;;;;53.00;30.48;;;;;;;10.73;94.31;98399.52;3642687;80;43693;-18
2021/03/04 10:58:06;;;;;;;59.05;30.32;;;;;;;10.54;94.93;98395.22;3584290;82;44087;-18
2021/03/04 11:03:12;;;;;;;55.67;30.27;;;;;;;10.30;98.22;98395.41;3583912;81;43711;-19
2021/03/04 11:08:18;;;;;;;53.87;29.05;;;;;;;10.27;98.63;98401.14;3583826;82;44038;-18
2021/03/04 11:13:25;;;;;;;53.13;29.23;;;;;;;10.24;99.95;98394.72;3569709;82;43686;-18
2021/03/04 11:18:31;;;;;;;55.53;30.37;;;;;;;10.03;99.53;98397.30;3577608;82;43136;-18
2021/03/04 11:23:37;;;;;;;57.55;32.73;;;;;;;9.88;100.00;98384.90;3583658;82;43395;-17
2021/03/04 11:28:43;;;;;;;62.35;29.95;;;;;;;9.68;100.00;98378.89;3581477;82;43588;-18
2021/03/04 11:33:49;;;;;;;57.00;31.42;;;;;;;9.53;100.00;98385.31;3579604;80;42872;-18
2021/03/04 11:38:55;;;;;;;51.92;28.70;;;;;;;9.11;100.00;98382.78;3586090;82;44067;-18
2021/03/04 11:44:01;;;;;;;64.10;33.47;;;;;;;8.64;100.00;98371.17;3583752;82;43664;-18
2021/03/04 11:49:08;;;;;;;63.23;31.85;;;;;;;8.38;100.00;98369.66;3585017;82;44054;-19
2021/03/04 11:54:14;;;;;;;70.13;35.87;;;;;;;8.15;100.00;98367.88;3586305;82;42612;-20
2021/03/04 11:59:20;;;;;;;67.37;33.87;;;;;;;8.14;100.00;98335.32;3643210;80;88126;-20
2021/03/04 12:04:26;;;;;;;75.50;36.03;;;;;;;8.23;100.00;98304.08;3669843;79;44035;-19
2021/03/04 12:09:33;;;;;;;70.00;34.37;;;;;;;8.54;100.00;98303.27;3674736;80;44148;-20
2021/03/04 12:14:40;;;;;;;61.85;31.55;;;;;;;8.81;100.00;98285.41;3675947;80;44429;-20
2021/03/04 12:19:47;;;;;;;43.38;23.30;;;;;;;9.06;100.00;98282.95;3672145;80;43391;-20
2021/03/04 12:24:53;;;;;;;45.45;23.15;;;;;;;9.08;100.00;98274.23;3672701;79;43711;-20
2021/03/04 12:30:00;;;;;;;40.25;20.95;;;;;;;9.16;100.00;98260.86;3681115;79;42956;-20
2021/03/04 12:35:08;;;;;;;38.65;19.70;;;;;;;9.03;100.00;98263.95;3738325;77;44043;-20
2021/03/04 12:40:17;;;;;;;39.08;21.90;;;;;;;9.00;100.00;98266.09;3655224;80;43711;-20
2021/03/04 12:45:25;;;;;;;37.53;20.13;;;;;;;9.12;100.00;98267.53;3758519;77;43420;-20
2021/03/04 12:50:31;;;;;;;34.25;17.95;;;;;;;9.22;100.00;98272.34;3772208;77;43677;-20
2021/03/04 12:55:37;;;;;;;35.30;16.57;;;;;;;9.42;100.00;98270.79;3743867;77;43461;-20
2021/03/04 13:00:43;;;;;;;30.25;16.00;;;;;;;9.64;100.00;98273.44;3623760;80;44137;-20
2021/03/04 13:05:51;;;;;;;28.42;14.40;;;;;;;9.69;100.00;98263.57;3722316;78;43870;-18
2021/03/04 13:10:57;;;;;;;28.32;14.95;;;;;;;9.69;100.00;98266.26;3726377;78;43388;-21
2021/03/04 13:16:05;;;;;;;28.60;16.27;;;;;;;9.60;100.00;98266.70;3722571;78;43321;-19
2021/03/04 13:21:13;;;;;;;32.05;17.55;;;;;;;9.53;100.00;98263.80;3728966;78;43677;-20
2021/03/04 13:26:20;;;;;;;32.75;18.02;;;;;;;9.46;100.00;98260.08;3730334;78;43487;-23
2021/03/04 13:31:25;;;;;;;35.33;17.57;;;;;;;9.44;100.00;98255.83;3720864;78;44039;-18
2021/03/04 13:36:34;;;;;;;31.52;17.57;;;;;;;9.38;100.00;98250.59;3726521;78;44443;-18
2021/03/04 13:41:40;;;;;;;38.70;19.65;;;;;;;9.30;100.00;98247.34;3715922;78;44029;-19
2021/03/04 13:46:48;;;;;;;40.97;22.30;;;;;;;9.27;100.00;98246.81;3653593;79;43755;-19
2021/03/04 13:51:55;;;;;;;44.13;24.63;;;;;;;9.22;100.00;98242.77;3718168;78;44039;-18
2021/03/04 13:57:02;;;;;;;49.73;27.55;;;;;;;9.05;100.00;98251.70;3711989;78;44023;-19
2021/03/04 14:02:09;;;;;;;54.98;29.95;;;;;;;8.89;100.00;98254.58;3723983;79;43689;-19
2021/03/04 14:07:16;;;;;;;52.65;29.32;;;;;;;8.68;100.00;98248.69;3740470;77;43718;-21
2021/03/04 14:12:22;;;;;;;52.07;30.70;;;;;;;8.50;100.00;98257.59;3718664;77;77798;-22
2021/03/04 14:17:29;;;;;;;52.63;31.20;;;;;;;8.11;100.00;98257.31;3656731;80;43337;-22
2021/03/04 14:22:36;;;;;;;42.33;29.60;;;;;;;7.80;100.00;98259.44;3661004;80;77733;-22
2021/03/04 14:27:43;;;;;;;44.35;29.70;;;;;;;7.20;100.00;98238.66;3708767;79;43277;-20
2021/03/04 14:32:49;;;;;;;54.17;33.00;;;;;;;6.60;100.00;98241.03;3718204;79;43440;-20
2021/03/04 14:37:55;;;;;;;56.87;34.80;;;;;;;6.56;100.00;98247.67;3709466;79;43498;-23
2021/03/04 14:43:01;;;;;;;62.37;35.23;;;;;;;6.36;100.00;98250.81;3734776;77;44089;-23
2021/03/04 14:48:10;;;;;;;75.67;37.87;;;;;;;6.01;100.00;98246.80;3732198;77;43731;-20
2021/03/04 14:53:17;;;;;;;95.87;41.83;;;;;;;5.81;100.00;98249.39;3668686;79;43733;-21
2021/03/04 14:58:22;;;;;;;94.60;40.50;;;;;;;5.56;100.00;98256.02;3725487;77;43491;-19
2021/03/04 15:03:29;;;;;;;88.97;38.87;;;;;;;5.33;100.00;98254.85;3666743;79;43461;-21
2021/03/04 15:08:35;;;;;;;74.83;34.17;;;;;;;5.39;100.00;98260.16;3722241;77;43358;-20
2021/03/04 15:13:42;;;;;;;73.27;30.37;;;;;;;5.17;100.00;98253.99;3713173;77;44064;-21
2021/03/04 15:18:48;;;;;;;60.10;27.87;;;;;;;5.17;100.00;98262.51;3735334;77;44022;-24
2021/03/04 15:23:54;;;;;;;60.57;26.83;;;;;;;4.99;100.00;98267.59;3725798;77;44080;-23
2021/03/04 15:29:02;;;;;;;52.47;24.00;;;;;;;4.89;100.00;98267.00;3713163;77;43502;-22
2021/03/04 15:34:08;;;;;;;54.23;26.40;;;;;;;4.77;100.00;98266.69;3730253;77;44026;-22
2021/03/04 15:39:14;;;;;;;51.17;25.97;;;;;;;4.69;100.00;98262.02;3712740;77;43305;-23
2021/03/04 15:44:27;;;;;;;46.73;22.00;;;;;;;4.61;100.00;98263.13;3726490;77;26428;-22
2021/03/04 15:49:34;;;;;;;43.70;21.57;;;;;;;4.54;100.00;98257.45;3737440;77;43425;-23
2021/03/04 15:54:41;;;;;;;41.57;20.80;;;;;;;4.49;100.00;98257.00;3728438;77;44265;-23
2021/03/04 15:59:48;;;;;;;42.07;19.77;;;;;;;4.51;100.00;98259.53;3687154;79;43151;-24
2021/03/04 16:04:54;;;;;;;38.83;20.10;;;;;;;4.52;100.00;98247.89;3718619;79;43674;-22
2021/03/04 16:10:00;;;;;;;41.67;20.97;;;;;;;4.48;100.00;98235.30;3675031;80;44387;-23
2021/03/04 16:15:09;;;;;;;50.40;23.43;;;;;;;4.45;100.00;98232.87;3742750;79;44678;-23
2021/03/04 16:20:16;;;;;;;56.23;23.27;;;;;;;4.38;100.00;98238.38;3674692;79;43430;-22
2021/03/04 16:25:25;;;;;;;50.03;21.23;;;;;;;4.24;100.00;98235.48;3760716;78;44803;-21
2021/03/04 16:30:33;;;;;;;47.10;22.03;;;;;;;4.15;100.00;98238.44;3673387;80;44050;-22
2021/03/04 16:35:39;;;;;;;52.73;22.23;;;;;;;4.11;100.00;98235.65;3744590;78;44494;-22
2021/03/04 16:40:46;;;;;;;40.93;18.23;;;;;;;4.05;100.00;98242.33;3675211;80;43493;-23
2021/03/04 16:45:54;;;;;;;44.17;19.17;;;;;;;3.97;100.00;98242.94;3746697;78;44041;-24
2021/03/04 16:51:01;;;;;;;36.40;17.33;;;;;;;3.90;100.00;98244.42;3744593;78;43281;-24
2021/03/04 16:56:09;;;;;;;37.53;16.97;;;;;;;3.89;100.00;98241.39;3749638;78;43294;-22
2021/03/04 17:01:17;;;;;;;32.73;14.93;;;;;;;3.75;100.00;98240.31;3681813;79;43758;-24
2021/03/04 17:06:27;;;;;;;37.57;17.13;;;;;;;3.66;100.00;98245.41;3723539;77;26333;-23
2021/03/04 17:11:35;;;;;;;42.07;17.70;;;;;;;3.57;100.00;98249.28;3725480;77;44416;-25
2021/03/04 17:16:40;;;;;;;49.03;20.33;;;;;;;3.39;100.00;98254.59;3730800;77;44073;-24
2021/03/04 17:21:46;;;;;;;60.13;22.90;;;;;;;3.33;100.00;98253.77;3725111;77;44588;-24
2021/03/04 17:26:52;;;;;;;70.67;25.13;;;;;;;3.26;100.00;98261.01;3717302;77;44015;-23
2021/03/04 17:31:59;;;;;;;76.43;27.27;;;;;;;3.11;100.00;98276.36;3716290;77;43497;-23
2021/03/04 17:37:06;;;;;;;64.10;23.50;;;;;;;3.07;100.00;98282.38;3727091;77;44435;-23
2021/03/04 17:42:13;;;;;;;64.43;24.10;;;;;;;3.03;100.00;98278.27;3718596;77;43325;-23
2021/03/04 17:47:20;;;;;;;83.63;25.00;;;;;;;3.02;100.00;98293.37;3728654;77;43665;-22
2021/03/04 17:52:26;;;;;;;90.97;27.70;;;;;;;2.97;100.00;98296.89;3735745;77;44041;-22
2021/03/04 17:57:34;;;;;;;94.00;27.77;;;;;;;3.00;100.00;98303.78;3726215;77;43344;-23
2021/03/04 18:02:40;;;;;;;105.27;30.77;;;;;;;2.93;100.00;98304.72;3723980;78;44159;-22
2021/03/04 18:07:47;;;;;;;110.50;34.53;;;;;;;2.92;100.00;98309.67;3723685;77;44015;-21
2021/03/04 18:12:53;;;;;;;89.83;27.80;;;;;;;2.77;100.00;98295.22;3720177;77;43719;-22
2021/03/04 18:17:59;;;;;;;101.93;32.43;;;;;;;2.76;100.00;98297.52;3716661;79;43688;-22
2021/03/04 18:23:08;;;;;;;90.23;25.17;;;;;;;2.77;100.00;98302.37;3716083;79;44596;-22
2021/03/04 18:28:16;;;;;;;63.57;22.23;;;;;;;2.72;100.00;98302.72;3717709;78;42929;-23
2021/03/04 18:33:23;;;;;;;62.97;21.57;;;;;;;2.72;100.00;98300.52;3722217;79;44011;-22
2021/03/04 18:38:28;;;;;;;76.03;29.00;;;;;;;2.60;100.00;98287.67;3708839;78;43031;-22
2021/03/04 18:43:35;;;;;;;63.47;21.30;;;;;;;2.55;100.00;98285.81;3709054;78;44121;-22
2021/03/04 18:48:41;;;;;;;60.97;22.03;;;;;;;2.51;100.00;98284.38;3718240;78;43479;-22
2021/03/04 18:53:47;;;;;;;47.03;17.17;;;;;;;2.53;100.00;98285.11;3639357;79;43724;-23
2021/03/04 18:58:54;;;;;;;47.17;18.03;;;;;;;2.45;100.00;98289.16;3724169;78;43397;-23
2021/03/04 19:04:01;;;;;;;40.37;15.60;;;;;;;2.42;100.00;98285.39;3714333;78;43673;-23
2021/03/04 19:09:10;;;;;;;33.93;14.27;;;;;;;2.32;100.00;98283.05;3714958;77;42105;-21
2021/03/04 19:14:16;;;;;;;37.77;14.00;;;;;;;2.18;100.00;98289.84;3725668;77;44041;-22
2021/03/04 19:19:22;;;;;;;40.60;15.77;;;;;;;2.13;100.00;98294.17;3725140;77;43690;-22
2021/03/04 19:24:28;;;;;;;36.57;15.17;;;;;;;2.12;100.00;98297.32;3734306;77;43413;-22
2021/03/04 19:29:36;;;;;;;36.67;15.87;;;;;;;2.12;100.00;98293.80;3730962;77;43710;-22
2021/03/04 19:34:42;;;;;;;39.57;16.13;;;;;;;2.08;100.00;98297.66;3718346;77;43429;-20
2021/03/04 19:39:48;;;;;;;29.30;12.87;;;;;;;2.09;100.00;98302.02;3722711;77;43423;-21
2021/03/04 19:44:56;;;;;;;25.13;10.90;;;;;;;2.00;100.00;98316.80;3666572;79;43682;-22
2021/03/04 19:50:01;;;;;;;21.90;9.63;;;;;;;1.98;100.00;98318.72;3731304;77;44101;-23
2021/03/04 19:55:09;;;;;;;23.33;10.53;;;;;;;1.97;100.00;98316.55;3724985;77;44089;-22
2021/03/04 20:00:17;;;;;;;233.10;111.10;;;;;;;2.02;100.00;98313.56;3796372;77;43066;-22
2021/03/04 20:05:24;;;;;;;38.33;24.57;;;;;;;2.08;100.00;98319.75;3718333;78;43445;-23
2021/03/04 20:10:30;;;;;;;21.67;9.33;;;;;;;2.10;100.00;98321.83;3731395;78;43403;-23
2021/03/04 20:15:39;;;;;;;22.97;12.93;;;;;;;2.00;100.00;98326.94;3660904;80;43740;-22
2021/03/04 20:20:48;;;;;;;22.80;10.40;;;;;;;2.00;100.00;98326.10;3725086;78;43668;-23
2021/03/04 20:25:56;;;;;;;27.07;13.27;;;;;;;2.00;100.00;98334.08;3734596;78;44434;-22
2021/03/04 20:31:03;;;;;;;26.43;11.40;;;;;;;1.95;100.00;98333.08;3732669;78;43737;-22
2021/03/04 20:36:10;;;;;;;25.07;10.53;;;;;;;1.84;100.00;98332.50;3674996;79;43554;-23
2021/03/04 20:41:16;;;;;;;31.70;14.60;;;;;;;1.83;100.00;98337.44;3742383;78;44046;-22
2021/03/04 20:46:23;;;;;;;23.73;9.70;;;;;;;1.85;100.00;98343.98;3678842;79;43721;-22
2021/03/04 20:51:30;;;;;;;25.20;10.27;;;;;;;1.84;100.00;98348.92;3749105;78;43682;-23
2021/03/04 20:56:36;;;;;;;23.33;9.47;;;;;;;1.80;100.00;98352.28;3746250;78;43368;-23
2021/03/04 21:01:42;;;;;;;23.73;9.00;;;;;;;1.89;100.00;98351.26;3677236;79;43491;-23
2021/03/04 21:06:48;;;;;;;26.37;10.07;;;;;;;1.81;100.00;98355.77;3744657;78;43664;-22
2021/03/04 21:11:54;;;;;;;24.57;10.80;;;;;;;1.78;100.00;98348.88;3720650;77;44097;-23
2021/03/04 21:17:04;;;;;;;23.67;9.27;;;;;;;1.75;100.00;98354.40;3715424;77;43714;-23
2021/03/04 21:22:11;;;;;;;21.67;9.37;;;;;;;1.72;100.00;98362.57;3730732;77;43991;-23
2021/03/04 21:27:18;;;;;;;24.63;10.07;;;;;;;1.57;100.00;98371.63;3725270;77;44067;-23
2021/03/04 21:32:24;;;;;;;23.60;9.70;;;;;;;1.62;100.00;98369.02;3731779;77;43716;-23
2021/03/04 21:37:30;;;;;;;24.27;9.97;;;;;;;1.61;100.00;98378.40;3720767;77;43472;-22
2021/03/04 21:42:36;;;;;;;26.03;10.40;;;;;;;1.63;100.00;98370.72;3727536;77;44010;-23
2021/03/04 21:47:42;;;;;;;28.87;10.83;;;;;;;1.59;100.00;98365.73;3710302;77;43474;-23
2021/03/04 21:52:49;;;;;;;27.23;11.00;;;;;;;1.56;100.00;98372.58;3724533;77;43762;-23
2021/03/04 21:57:55;;;;;;;29.00;11.80;;;;;;;1.57;100.00;98374.28;3733361;77;43644;-22
2021/03/04 22:03:01;;;;;;;33.37;12.77;;;;;;;1.51;100.00;98378.20;3671993;79;43345;-22
2021/03/04 22:08:09;;;;;;;32.63;12.43;;;;;;;1.45;100.00;98371.51;3721176;77;44427;-23
2021/03/04 22:13:15;;;;;;;35.07;12.20;;;;;;;1.46;100.00;98369.69;3740453;77;44027;-22
2021/03/04 22:18:21;;;;;;;29.87;10.83;;;;;;;1.47;100.00;98373.55;3748346;77;43722;-22
2021/03/04 22:23:27;;;;;;;32.10;12.33;;;;;;;1.47;100.00;98378.03;3743389;78;44047;-22
2021/03/04 22:28:34;;;;;;;29.97;10.97;;;;;;;1.52;100.00;98379.91;3746349;79;44018;-24
2021/03/04 22:33:40;;;;;;;31.50;11.97;;;;;;;1.61;100.00;98383.71;3742472;78;45381;-21
2021/03/04 22:38:47;;;;;;;32.50;12.53;;;;;;;1.54;100.00;98370.00;3743399;77;43404;-22
2021/03/04 22:43:53;;;;;;;26.97;11.37;;;;;;;1.50;100.00;98380.48;3746563;77;43706;-20
2021/03/04 22:48:59;;;;;;;27.13;10.83;;;;;;;1.49;100.00;98376.13;3748591;77;43409;-21
2021/03/04 22:54:06;;;;;;;26.57;10.20;;;;;;;1.40;100.00;98388.22;3752841;77;43720;-22
2021/03/04 22:59:12;;;;;;;26.70;11.07;;;;;;;1.34;100.00;98392.13;3746915;77;44010;-20
2021/03/04 23:04:18;;;;;;;27.27;10.73;;;;;;;1.31;100.00;98396.80;3692843;79;44081;-20
2021/03/04 23:09:23;;;;;;;26.83;10.67;;;;;;;1.35;100.00;98398.31;3749373;77;43396;-21
2021/03/04 23:14:30;;;;;;;23.27;9.80;;;;;;;1.37;100.00;98405.67;3677241;79;43353;-21
2021/03/04 23:19:35;;;;;;;24.40;10.27;;;;;;;1.30;100.00;98408.37;3749552;77;43668;-21
2021/03/04 23:24:41;;;;;;;26.00;10.93;;;;;;;1.37;100.00;98405.67;3703445;79;43452;-21
2021/03/04 23:29:47;;;;;;;23.37;9.80;;;;;;;1.34;100.00;98405.41;3680224;79;44074;-21